Time;durP1;ratioP1;P1;durP2;ratioP2;P2;SDS_P1;SDS_P2;PMS_P1;PMS_P2;Temp;Humidity;BMP_temperature;BMP_pressure;BME280_temperature;BME280_humidity;BME280_pressure;Samples;Min_cycle;Max_cycle;Signal;HPM_P1;HPM_P2
2023/05/26 00:01:11;;;;;;;13.63;7.53;;;;;;;12.20;100.00;99972.31;4969811;28;20211;-76
2023/05/26 00:03:44;;;;;;;11.90;7.60;;;;;;;12.25;100.00;99976.41;4969142;28;20686;-76
2023/05/26 00:06:13;;;;;;;13.80;8.27;;;;;;;12.31;100.00;99967.22;4978584;28;20737;-77
2023/05/26 00:08:41;;;;;;;12.80;7.93;;;;;;;12.32;100.00;99971.59;5007999;28;20224;-77
2023/05/26 00:11:10;;;;;;;13.80;8.23;;;;;;;12.33;100.00;99968.00;5011946;28;20230;-76
2023/05/26 00:13:38;;;;;;;9.50;6.83;;;;;;;12.37;100.00;99974.84;5013219;28;20213;-76
2023/05/26 00:16:06;;;;;;;10.93;7.13;;;;;;;12.24;100.00;99976.50;5006367;28;20209;-76
2023/05/26 00:18:36;;;;;;;13.27;7.40;;;;;;;12.36;100.00;99972.28;5009579;28;20195;-76
2023/05/26 00:21:05;;;;;;;11.47;7.67;;;;;;;12.33;100.00;99976.81;5015697;28;20293;-76
2023/05/26 00:23:33;;;;;;;11.33;7.57;;;;;;;12.33;100.00;99971.50;5011716;28;20202;-76
2023/05/26 00:26:01;;;;;;;13.07;7.97;;;;;;;12.28;100.00;99978.91;4992881;28;20242;-77
2023/05/26 00:28:31;;;;;;;15.77;7.87;;;;;;;11.78;100.00;99976.44;4980488;28;20219;-76
2023/05/26 00:30:59;;;;;;;14.13;7.73;;;;;;;12.00;100.00;99976.13;4991000;28;20207;-77
2023/05/26 00:33:28;;;;;;;12.27;7.83;;;;;;;12.19;100.00;99973.25;4992457;28;20188;-76
2023/05/26 00:35:58;;;;;;;15.10;7.97;;;;;;;12.16;100.00;99971.66;4987317;28;20490;-77
2023/05/26 00:38:26;;;;;;;13.23;8.03;;;;;;;12.09;100.00;99969.44;4978938;28;20206;-76
2023/05/26 00:40:54;;;;;;;13.43;8.03;;;;;;;12.19;100.00;99959.97;4992038;28;20214;-76
2023/05/26 00:43:23;;;;;;;12.10;8.23;;;;;;;11.92;100.00;99962.41;4988762;28;20204;-76
2023/05/26 00:45:51;;;;;;;15.47;8.23;;;;;;;12.17;100.00;99959.22;4995938;28;20210;-76
2023/05/26 00:48:19;;;;;;;10.50;8.00;;;;;;;11.99;100.00;99967.28;4984581;28;20222;-76
2023/05/26 00:50:48;;;;;;;14.20;8.63;;;;;;;11.99;100.00;99963.78;4993074;28;20223;-76
2023/05/26 00:53:18;;;;;;;14.77;8.50;;;;;;;12.09;100.00;99964.97;4994372;28;20199;-77
2023/05/26 00:55:50;;;;;;;13.23;8.27;;;;;;;11.99;100.00;99958.47;4989684;28;20203;-76
2023/05/26 00:58:19;;;;;;;11.83;8.17;;;;;;;12.08;100.00;99960.59;4988516;28;20206;-76
2023/05/26 01:00:47;;;;;;;14.57;8.33;;;;;;;11.86;100.00;99954.78;4980818;28;20203;-76
2023/05/26 01:03:18;;;;;;;13.90;8.30;;;;;;;11.90;100.00;99956.34;4995626;28;20250;-76
2023/05/26 01:05:48;;;;;;;10.77;8.20;;;;;;;11.99;100.00;99954.00;4995478;28;20258;-76
2023/05/26 01:08:18;;;;;;;14.27;7.63;;;;;;;11.97;100.00;99953.25;4988768;28;20222;-77
2023/05/26 01:10:46;;;;;;;11.87;8.27;;;;;;;11.88;100.00;99951.13;4995500;28;20191;-77
2023/05/26 01:13:21;;;;;;;13.73;7.90;;;;;;;11.90;100.00;99951.88;4989008;28;20219;-76
2023/05/26 01:15:52;;;;;;;12.93;8.13;;;;;;;11.86;100.00;99957.44;4995379;28;20195;-77
2023/05/26 01:18:29;;;;;;;15.30;8.97;;;;;;;11.59;100.00;99963.34;4984535;28;20199;-76
2023/05/26 01:21:05;;;;;;;15.27;8.97;;;;;;;11.39;100.00;99959.13;4992419;28;20253;-76
2023/05/26 01:23:48;;;;;;;12.90;8.67;;;;;;;11.53;100.00;99968.09;4987715;28;20195;-77
2023/05/26 01:26:38;;;;;;;10.67;8.13;;;;;;;11.45;100.00;99965.88;4986791;28;20218;-76
2023/05/26 01:29:12;;;;;;;12.77;8.93;;;;;;;11.53;100.00;99970.75;4986009;28;20234;-77
2023/05/26 01:31:40;;;;;;;14.57;8.43;;;;;;;11.65;100.00;99964.78;4986010;28;20203;-76
2023/05/26 01:34:08;;;;;;;12.90;8.60;;;;;;;11.51;100.00;99962.88;4982361;28;20258;-77
2023/05/26 01:36:37;;;;;;;14.37;8.80;;;;;;;11.56;100.00;99955.53;4983242;28;20281;-76
2023/05/26 01:39:07;;;;;;;15.40;8.77;;;;;;;11.61;100.00;99965.91;4985638;28;20206;-77
2023/05/26 01:41:44;;;;;;;15.53;8.00;;;;;;;11.65;100.00;99956.81;4991643;28;20203;-76
2023/05/26 01:44:20;;;;;;;16.77;8.27;;;;;;;11.42;100.00;99961.59;4985839;28;20221;-76
2023/05/26 01:46:51;;;;;;;12.70;8.47;;;;;;;11.59;100.00;99970.44;4983992;28;20654;-76
2023/05/26 01:49:21;;;;;;;12.13;8.20;;;;;;;11.64;100.00;99961.25;4991466;28;20698;-77
2023/05/26 01:51:56;;;;;;;15.47;8.60;;;;;;;11.55;100.00;99964.44;4988174;28;20202;-76
2023/05/26 01:54:30;;;;;;;19.30;8.50;;;;;;;11.52;100.00;99961.94;4991658;28;20230;-76
2023/05/26 01:56:59;;;;;;;16.87;8.50;;;;;;;11.60;100.00;99961.53;4953968;28;20199;-77
2023/05/26 01:59:30;;;;;;;12.17;8.50;;;;;;;11.57;100.00;99959.03;4988947;28;20205;-76
2023/05/26 02:01:58;;;;;;;17.60;8.57;;;;;;;11.54;100.00;99965.38;4984143;28;20211;-76
2023/05/26 02:04:26;;;;;;;14.17;8.73;;;;;;;11.65;100.00;99967.41;4990169;28;20207;-76
2023/05/26 02:06:55;;;;;;;18.00;8.63;;;;;;;11.59;100.00;99960.69;4987783;28;20206;-76
2023/05/26 02:09:24;;;;;;;16.43;8.77;;;;;;;11.60;100.00;99962.38;4987777;28;20215;-77
2023/05/26 02:11:53;;;;;;;16.97;8.97;;;;;;;11.59;100.00;99965.97;4989644;28;20291;-76
2023/05/26 02:14:21;;;;;;;17.60;8.37;;;;;;;11.37;100.00;99963.63;4989018;28;20245;-77
2023/05/26 02:16:52;;;;;;;14.33;8.30;;;;;;;11.41;100.00;99964.34;4991480;28;20201;-76
2023/05/26 02:19:22;;;;;;;15.90;8.60;;;;;;;11.35;100.00;99970.81;4988262;28;20202;-76
2023/05/26 02:21:51;;;;;;;14.37;8.57;;;;;;;11.46;100.00;99967.59;4987731;28;20210;-77
2023/05/26 02:24:19;;;;;;;13.20;8.07;;;;;;;11.49;100.00;99972.75;4997641;28;20254;-76
2023/05/26 02:26:47;;;;;;;11.03;8.07;;;;;;;11.52;100.00;99972.56;5007291;28;20199;-76
2023/05/26 02:29:16;;;;;;;16.53;8.47;;;;;;;11.40;100.00;99971.44;5007237;28;20228;-77
2023/05/26 02:31:44;;;;;;;15.80;8.70;;;;;;;11.42;100.00;99963.41;5010262;28;20203;-77
2023/05/26 02:34:15;;;;;;;18.57;8.93;;;;;;;11.13;100.00;99970.25;5005737;28;20206;-76
2023/05/26 02:36:44;;;;;;;11.47;8.00;;;;;;;11.22;100.00;99969.78;5003663;28;20198;-76
2023/05/26 02:39:12;;;;;;;15.77;8.30;;;;;;;11.19;100.00;99969.91;5007252;28;20198;-76
2023/05/26 02:41:41;;;;;;;17.57;8.23;;;;;;;11.10;100.00;99970.44;5007965;28;20198;-76
2023/05/26 02:44:09;;;;;;;17.37;8.20;;;;;;;10.94;100.00;99967.72;5010511;28;20202;-76
2023/05/26 02:46:38;;;;;;;17.40;8.97;;;;;;;10.95;100.00;99974.75;5008935;28;20245;-76
2023/05/26 02:49:06;;;;;;;20.87;8.87;;;;;;;10.93;100.00;99973.13;5004878;28;20222;-76
2023/05/26 02:51:36;;;;;;;19.30;9.23;;;;;;;10.77;100.00;99965.09;4961402;28;20212;-76
2023/05/26 02:54:04;;;;;;;18.03;9.10;;;;;;;10.69;100.00;99975.22;4964530;28;20208;-76
2023/05/26 02:56:33;;;;;;;20.37;9.07;;;;;;;10.74;100.00;99973.22;4964088;28;20208;-76
2023/05/26 02:59:01;;;;;;;19.43;10.07;;;;;;;10.86;100.00;99969.91;4969571;28;20192;-76
2023/05/26 03:01:32;;;;;;;17.83;9.70;;;;;;;10.81;100.00;99972.81;4969580;28;20230;-76
2023/05/26 03:04:00;;;;;;;17.50;8.23;;;;;;;10.69;100.00;99978.72;4969262;28;20196;-76
2023/05/26 03:06:29;;;;;;;20.17;9.37;;;;;;;10.72;100.00;99977.75;4968004;28;20204;-76
2023/05/26 03:08:59;;;;;;;20.83;10.17;;;;;;;10.76;100.00;99990.75;4973257;28;20225;-76
2023/05/26 03:11:27;;;;;;;19.20;9.60;;;;;;;10.70;100.00;99979.59;5003952;28;20200;-76
2023/05/26 03:13:55;;;;;;;17.90;9.53;;;;;;;10.80;100.00;99980.81;5005658;28;20273;-76
2023/05/26 03:16:24;;;;;;;19.93;10.00;;;;;;;10.88;100.00;99976.00;5005335;28;20202;-75
2023/05/26 03:18:52;;;;;;;18.07;9.43;;;;;;;10.75;100.00;99970.47;5009123;28;20202;-76
2023/05/26 03:21:21;;;;;;;26.00;10.13;;;;;;;10.66;100.00;99970.94;5002562;28;20200;-75
2023/05/26 03:24:11;;;;;;;22.30;9.83;;;;;;;10.74;100.00;99978.50;5012808;28;20266;-76
2023/05/26 03:26:40;;;;;;;17.87;9.93;;;;;;;10.59;100.00;99980.13;4997916;28;20194;-75
2023/05/26 03:29:09;;;;;;;25.43;9.87;;;;;;;10.53;100.00;99978.69;5004062;28;20206;-77
2023/05/26 03:31:38;;;;;;;19.97;10.50;;;;;;;10.55;100.00;99975.94;5004862;28;20202;-76
2023/05/26 03:34:07;;;;;;;24.83;9.77;;;;;;;10.35;100.00;99979.59;5005424;28;20665;-76
2023/05/26 03:36:36;;;;;;;23.83;9.33;;;;;;;10.46;100.00;99981.72;5003752;28;20254;-76
2023/05/26 03:39:05;;;;;;;21.83;9.37;;;;;;;10.67;100.00;99993.00;5008456;28;20206;-76
2023/05/26 03:41:35;;;;;;;28.77;9.67;;;;;;;10.67;100.00;99980.59;5000819;28;20206;-76
2023/05/26 03:44:04;;;;;;;19.37;9.43;;;;;;;10.69;100.00;99976.09;5002232;28;20206;-76
2023/05/26 03:46:32;;;;;;;19.83;9.40;;;;;;;10.72;100.00;99983.03;5005681;28;20337;-76
2023/05/26 03:49:01;;;;;;;18.60;9.23;;;;;;;10.74;100.00;99979.38;5007251;28;20209;-76
2023/05/26 03:51:30;;;;;;;23.50;9.10;;;;;;;10.79;100.00;99979.97;5007159;28;20226;-76
2023/05/26 03:53:58;;;;;;;23.57;9.63;;;;;;;10.87;100.00;99979.59;5000990;28;20212;-76
2023/05/26 03:56:27;;;;;;;23.67;9.50;;;;;;;10.87;100.00;99988.38;5006862;28;20210;-76
2023/05/26 03:58:56;;;;;;;19.60;9.37;;;;;;;10.69;100.00;99978.72;5000266;28;20228;-76
2023/05/26 04:01:25;;;;;;;24.93;10.40;;;;;;;10.78;100.00;99970.31;5004250;28;20214;-76
2023/05/26 04:03:53;;;;;;;20.97;10.60;;;;;;;10.92;100.00;99974.06;5004771;28;20306;-78
2023/05/26 04:06:23;;;;;;;24.83;10.97;;;;;;;10.99;100.00;99981.59;4970428;28;20285;-76
2023/05/26 04:08:51;;;;;;;26.63;10.13;;;;;;;10.78;100.00;99982.72;5009281;28;20239;-76
2023/05/26 04:11:21;;;;;;;25.53;10.47;;;;;;;10.94;100.00;99974.81;5006353;28;20214;-77
2023/05/26 04:13:49;;;;;;;22.10;10.67;;;;;;;10.64;100.00;99979.91;5003103;28;20206;-77
2023/05/26 04:16:19;;;;;;;23.13;9.87;;;;;;;10.73;100.00;99982.97;4962433;28;20222;-76
2023/05/26 04:18:48;;;;;;;23.80;9.80;;;;;;;10.64;100.00;99986.06;5006671;28;20195;-76
2023/05/26 04:21:16;;;;;;;26.63;11.07;;;;;;;10.68;100.00;99990.28;5001946;28;20213;-76
2023/05/26 04:23:47;;;;;;;26.20;10.97;;;;;;;10.74;100.00;99989.97;5002138;28;20634;-76
2023/05/26 04:26:17;;;;;;;28.07;10.80;;;;;;;10.88;100.00;99991.88;5006563;28;20717;-76
2023/05/26 04:28:45;;;;;;;23.93;9.53;;;;;;;10.80;100.00;99992.28;5008148;28;20286;-76
2023/05/26 04:31:16;;;;;;;22.37;9.37;;;;;;;10.69;100.00;99996.41;5005090;28;20711;-76
2023/05/26 04:33:48;;;;;;;23.40;9.47;;;;;;;10.71;100.00;99991.91;5005552;28;20268;-76
2023/05/26 04:36:17;;;;;;;24.27;10.50;;;;;;;10.73;100.00;99992.69;5007721;28;20203;-76
2023/05/26 04:38:47;;;;;;;22.80;10.00;;;;;;;10.56;100.00;100002.34;5004572;28;20197;-76
2023/05/26 04:41:16;;;;;;;25.23;9.80;;;;;;;10.69;100.00;100005.22;5015556;28;20204;-76
2023/05/26 04:43:44;;;;;;;25.77;9.67;;;;;;;10.74;100.00;100002.34;5007919;28;20204;-76
2023/05/26 04:46:13;;;;;;;29.90;9.57;;;;;;;10.59;100.00;100002.19;5009030;28;20194;-76
2023/05/26 04:48:41;;;;;;;25.50;9.53;;;;;;;10.51;100.00;100008.81;5008084;28;20313;-76
2023/05/26 04:51:11;;;;;;;33.33;10.37;;;;;;;10.84;100.00;100008.91;5011680;28;20219;-76
2023/05/26 04:53:40;;;;;;;26.53;9.43;;;;;;;10.78;100.00;100011.84;5009840;28;20222;-76
2023/05/26 04:56:08;;;;;;;29.33;9.50;;;;;;;10.76;100.00;100013.72;5012671;28;20229;-76
2023/05/26 04:58:37;;;;;;;25.17;9.63;;;;;;;10.79;100.00;100022.38;5007139;28;20277;-77
2023/05/26 05:01:05;;;;;;;25.90;9.63;;;;;;;10.78;100.00;100018.00;5015096;28;20201;-76
2023/05/26 05:03:36;;;;;;;26.23;9.47;;;;;;;10.89;100.00;100023.63;5007875;28;20199;-77
2023/05/26 05:06:07;;;;;;;25.10;9.50;;;;;;;10.88;100.00;100023.69;5005583;28;20197;-76
2023/05/26 05:08:36;;;;;;;26.00;9.50;;;;;;;10.99;100.00;100028.44;4962334;28;20199;-76
2023/05/26 05:11:05;;;;;;;22.83;8.90;;;;;;;11.12;100.00;100032.19;5010985;28;20222;-76
2023/05/26 05:13:33;;;;;;;29.57;10.53;;;;;;;11.17;100.00;100035.44;5008311;28;20202;-76
2023/05/26 05:16:01;;;;;;;29.33;10.20;;;;;;;11.23;100.00;100039.59;5005033;28;20676;-76
2023/05/26 05:18:32;;;;;;;33.27;9.67;;;;;;;11.39;100.00;100036.03;4996933;28;20237;-76
2023/05/26 05:21:00;;;;;;;28.63;9.37;;;;;;;11.49;100.00;100036.41;5005594;28;20202;-76
2023/05/26 05:23:30;;;;;;;26.20;8.83;;;;;;;11.44;100.00;100041.09;5007198;28;20249;-77
2023/05/26 05:26:02;;;;;;;28.97;9.23;;;;;;;11.41;100.00;100039.47;5008027;28;20233;-76
2023/05/26 05:28:31;;;;;;;30.10;9.67;;;;;;;11.42;100.00;100035.88;5009430;28;20646;-76
2023/05/26 05:30:59;;;;;;;25.40;8.33;;;;;;;11.62;100.00;100044.56;5014488;28;20214;-76
2023/05/26 05:33:28;;;;;;;26.77;8.93;;;;;;;11.73;100.00;100040.38;5006549;28;20198;-76
2023/05/26 05:35:57;;;;;;;26.93;8.97;;;;;;;11.96;100.00;100047.09;5009530;28;20213;-76
2023/05/26 05:38:25;;;;;;;22.83;7.73;;;;;;;11.84;100.00;100038.97;5008419;28;20245;-77
2023/05/26 05:40:53;;;;;;;28.63;9.27;;;;;;;11.98;100.00;100050.53;5010740;28;20206;-76
2023/05/26 05:43:23;;;;;;;27.93;8.00;;;;;;;11.97;100.00;100050.63;5008542;28;20199;-77
2023/05/26 05:45:51;;;;;;;23.53;8.03;;;;;;;12.02;100.00;100052.06;5006514;28;20199;-76
2023/05/26 05:48:20;;;;;;;32.10;9.13;;;;;;;11.87;100.00;100050.28;5007151;28;20277;-77
2023/05/26 05:50:48;;;;;;;27.27;8.20;;;;;;;11.89;100.00;100051.06;5014065;28;20373;-76
2023/05/26 05:53:16;;;;;;;28.37;8.60;;;;;;;12.23;100.00;100060.63;5005674;28;20230;-77
2023/05/26 05:55:46;;;;;;;25.70;8.60;;;;;;;12.06;100.00;100063.38;5002332;28;20202;-76
2023/05/26 05:58:14;;;;;;;30.63;8.17;;;;;;;12.13;100.00;100063.91;5008074;28;20764;-76
2023/05/26 06:00:44;;;;;;;33.67;8.40;;;;;;;12.09;100.00;100062.38;5007909;28;20221;-76
2023/05/26 06:03:13;;;;;;;29.40;8.00;;;;;;;12.05;100.00;100066.97;4999309;28;20229;-76
2023/05/26 06:05:41;;;;;;;26.53;7.90;;;;;;;12.37;100.00;100057.22;5002965;28;20206;-77
2023/05/26 06:08:10;;;;;;;26.07;8.80;;;;;;;12.44;100.00;100063.88;5000568;28;20202;-76
2023/05/26 06:10:38;;;;;;;25.50;8.63;;;;;;;12.67;100.00;100065.22;5008334;28;20221;-77
2023/05/26 06:13:07;;;;;;;27.97;8.43;;;;;;;12.49;100.00;100069.78;4964053;28;20202;-76
2023/05/26 06:15:36;;;;;;;23.93;7.97;;;;;;;12.55;100.00;100077.44;5008408;28;20190;-76
2023/05/26 06:18:06;;;;;;;33.00;8.73;;;;;;;12.56;100.00;100076.47;5005565;28;20190;-76
2023/05/26 06:20:35;;;;;;;31.10;8.97;;;;;;;12.77;100.00;100070.88;5009291;28;20191;-77
2023/05/26 06:23:03;;;;;;;26.47;7.70;;;;;;;12.58;100.00;100068.41;5008731;28;20229;-77
2023/05/26 06:25:32;;;;;;;29.87;8.77;;;;;;;12.64;100.00;100073.34;5008290;28;20253;-76
2023/05/26 06:28:00;;;;;;;30.23;8.23;;;;;;;12.88;100.00;100065.78;5009001;28;20202;-77
2023/05/26 06:30:28;;;;;;;27.20;8.53;;;;;;;13.06;100.00;100069.16;4938461;28;20196;-76
2023/05/26 06:32:56;;;;;;;23.10;7.90;;;;;;;13.17;100.00;100072.00;4945872;28;20227;-76
2023/05/26 06:35:26;;;;;;;23.87;7.80;;;;;;;13.03;100.00;100069.34;4953040;28;20200;-76
2023/05/26 06:37:55;;;;;;;28.17;8.13;;;;;;;13.25;100.00;100074.25;4872403;29;20274;-76
2023/05/26 06:40:24;;;;;;;20.60;7.40;;;;;;;13.32;100.00;100067.63;4873678;29;20286;-76
2023/05/26 06:42:53;;;;;;;23.63;7.57;;;;;;;13.50;100.00;100073.59;4838856;29;20203;-77
2023/05/26 06:45:21;;;;;;;23.47;7.90;;;;;;;13.65;100.00;100070.88;4870983;29;20200;-77
2023/05/26 06:47:50;;;;;;;30.10;8.50;;;;;;;13.55;100.00;100067.06;4879334;29;20204;-77
2023/05/26 06:50:18;;;;;;;25.07;7.97;;;;;;;13.84;100.00;100072.38;4933562;29;20573;-77
2023/05/26 06:52:48;;;;;;;25.03;8.40;;;;;;;14.12;100.00;100066.16;4926436;29;20217;-77
2023/05/26 06:55:16;;;;;;;24.37;7.23;;;;;;;13.98;100.00;100069.69;4938510;28;20194;-76
2023/05/26 06:57:45;;;;;;;21.70;7.20;;;;;;;14.19;100.00;100067.50;4970768;28;20203;-77
2023/05/26 07:00:14;;;;;;;29.57;7.13;;;;;;;14.23;100.00;100069.84;5010127;28;20257;-77
2023/05/26 07:02:42;;;;;;;26.20;7.83;;;;;;;14.26;100.00;100066.97;4978892;28;20239;-77
2023/05/26 07:05:11;;;;;;;25.03;7.77;;;;;;;14.19;100.00;100063.00;5006640;28;20769;-76
2023/05/26 07:07:40;;;;;;;24.10;7.63;;;;;;;14.41;100.00;100066.94;5011468;28;20637;-76
2023/05/26 07:10:11;;;;;;;19.87;7.30;;;;;;;14.50;100.00;100064.56;5009423;28;20673;-77
2023/05/26 07:12:42;;;;;;;25.73;8.10;;;;;;;14.76;100.00;100062.81;5009369;28;20317;-76
2023/05/26 07:15:11;;;;;;;25.07;7.43;;;;;;;14.87;100.00;100059.47;5012469;28;20226;-77
2023/05/26 07:17:40;;;;;;;23.20;7.47;;;;;;;14.99;100.00;100060.44;4978956;28;20318;-77
2023/05/26 07:20:09;;;;;;;26.30;7.93;;;;;;;15.03;100.00;100049.44;5011784;28;20196;-77
2023/05/26 07:22:37;;;;;;;28.47;7.50;;;;;;;15.36;100.00;100050.75;5002668;28;20213;-77
2023/05/26 07:25:06;;;;;;;21.60;7.13;;;;;;;15.30;100.00;100041.34;5005869;28;20222;-77
2023/05/26 07:27:36;;;;;;;25.67;8.20;;;;;;;15.60;100.00;100049.06;5005772;28;20244;-77
2023/05/26 07:30:05;;;;;;;29.07;7.90;;;;;;;15.57;100.00;100046.59;5013296;28;20203;-77
2023/05/26 07:32:34;;;;;;;22.50;7.27;;;;;;;15.57;100.00;100051.94;5012732;28;20280;-77
2023/05/26 07:35:03;;;;;;;25.37;7.33;;;;;;;15.76;100.00;100053.34;5005065;28;20202;-77
2023/05/26 07:37:31;;;;;;;20.40;6.93;;;;;;;15.68;100.00;100049.38;5006589;28;20190;-77
2023/05/26 07:39:59;;;;;;;24.33;7.10;;;;;;;15.87;100.00;100046.25;5007634;28;20207;-77
2023/05/26 07:42:27;;;;;;;23.73;6.80;;;;;;;16.05;100.00;100043.22;5011899;28;20677;-77
2023/05/26 07:44:57;;;;;;;21.67;7.00;;;;;;;16.36;100.00;100044.50;5007846;28;20284;-77
2023/05/26 07:47:29;;;;;;;24.83;7.13;;;;;;;16.18;100.00;100046.72;5010296;28;20253;-77
2023/05/26 07:49:58;;;;;;;21.20;6.60;;;;;;;16.27;100.00;100046.03;5009492;28;20194;-77
2023/05/26 07:52:26;;;;;;;24.80;7.33;;;;;;;16.34;100.00;100039.28;5004501;28;20229;-77
2023/05/26 07:54:55;;;;;;;18.83;7.23;;;;;;;16.60;100.00;100040.88;5012844;28;20209;-77
2023/05/26 07:57:24;;;;;;;22.03;7.00;;;;;;;16.55;100.00;100026.97;5008349;28;20198;-77
2023/05/26 07:59:58;;;;;;;18.87;6.37;;;;;;;17.01;100.00;100041.44;5012406;28;20202;-77
2023/05/26 08:02:28;;;;;;;25.07;6.47;;;;;;;16.86;100.00;100038.06;5006189;28;20202;-76
2023/05/26 08:04:57;;;;;;;22.90;7.67;;;;;;;16.75;100.00;100036.22;5007078;28;20257;-77
2023/05/26 08:07:25;;;;;;;24.53;6.83;;;;;;;16.97;100.00;100037.25;5009699;28;20202;-77
2023/05/26 08:09:53;;;;;;;19.90;6.47;;;;;;;16.66;100.00;100039.56;5015757;28;20210;-77
2023/05/26 08:12:21;;;;;;;22.50;7.07;;;;;;;16.59;100.00;100040.97;5008642;28;20227;-77
2023/05/26 08:14:50;;;;;;;20.93;7.10;;;;;;;16.92;100.00;100048.31;5015671;28;20195;-77
2023/05/26 08:17:20;;;;;;;21.47;6.83;;;;;;;16.78;100.00;100046.69;5011697;28;20202;-76
2023/05/26 08:19:48;;;;;;;23.27;6.83;;;;;;;16.70;100.00;100049.09;5010102;28;20195;-77
2023/05/26 08:22:16;;;;;;;27.17;7.00;;;;;;;16.97;100.00;100048.81;5014311;28;20216;-77
2023/05/26 08:24:44;;;;;;;26.87;7.70;;;;;;;16.79;100.00;100050.22;5015709;28;20230;-77
2023/05/26 08:27:13;;;;;;;23.07;6.67;;;;;;;16.86;100.00;100049.63;5015646;28;20209;-77
2023/05/26 08:29:41;;;;;;;16.83;6.73;;;;;;;16.92;100.00;100052.81;5014437;28;20202;-77
2023/05/26 08:32:09;;;;;;;25.07;6.60;;;;;;;17.14;100.00;100048.38;5014023;28;20206;-77
2023/05/26 08:34:39;;;;;;;20.30;6.97;;;;;;;17.21;100.00;100059.47;5015252;28;20199;-77
2023/05/26 08:37:07;;;;;;;22.57;6.90;;;;;;;17.40;100.00;100054.41;5010158;28;20214;-77
2023/05/26 08:39:36;;;;;;;22.57;6.27;;;;;;;17.66;100.00;100054.16;5013388;28;20225;-77
2023/05/26 08:42:06;;;;;;;21.20;6.40;;;;;;;17.68;100.00;100052.25;5007613;28;20202;-77
2023/05/26 08:44:35;;;;;;;20.20;7.13;;;;;;;17.53;100.00;100051.63;5012898;28;20210;-76
2023/05/26 08:47:04;;;;;;;20.97;6.90;;;;;;;17.38;100.00;100052.81;5008969;28;20199;-77
2023/05/26 08:49:36;;;;;;;23.07;6.83;;;;;;;17.47;100.00;100054.78;5011061;28;20202;-76
2023/05/26 08:52:10;;;;;;;24.03;7.23;;;;;;;17.88;100.00;100056.91;5013793;28;20207;-77
2023/05/26 08:54:39;;;;;;;20.53;6.60;;;;;;;17.76;100.00;100048.97;5018581;28;20198;-77
2023/05/26 08:57:07;;;;;;;17.93;6.67;;;;;;;17.78;100.00;100055.94;5017825;28;20198;-77
2023/05/26 08:59:37;;;;;;;25.33;6.60;;;;;;;17.88;100.00;100050.69;5004869;28;20202;-77
2023/05/26 09:02:06;;;;;;;17.90;6.80;;;;;;;18.19;100.00;100046.38;5015281;28;20776;-77
2023/05/26 09:04:35;;;;;;;21.10;6.37;;;;;;;17.80;100.00;100050.44;5008791;28;20209;-77
2023/05/26 09:07:08;;;;;;;18.80;6.53;;;;;;;17.89;100.00;100057.75;5013807;28;20191;-77
2023/05/26 09:09:54;;;;;;;19.03;5.50;;;;;;;18.23;100.00;100051.34;5014036;28;20210;-77
2023/05/26 09:12:22;;;;;;;18.07;5.43;;;;;;;18.54;100.00;100059.59;5014981;28;20206;-77
2023/05/26 09:14:50;;;;;;;21.63;6.07;;;;;;;18.82;100.00;100056.34;5008536;28;20237;-77
2023/05/26 09:17:19;;;;;;;14.40;5.07;;;;;;;18.87;100.00;100051.44;5009125;28;20282;-76
2023/05/26 09:19:47;;;;;;;12.57;5.20;;;;;;;18.94;100.00;100054.47;5005454;28;20199;-77
2023/05/26 09:22:22;;;;;;;20.20;6.67;;;;;;;19.33;100.00;100052.03;4972577;28;20202;-77
2023/05/26 09:24:51;;;;;;;18.67;5.53;;;;;;;19.15;100.00;100051.78;5008410;28;20466;-77
2023/05/26 09:27:21;;;;;;;18.27;5.37;;;;;;;19.16;99.53;100056.16;5015348;28;20205;-77
2023/05/26 09:29:54;;;;;;;18.40;6.10;;;;;;;19.29;99.74;100051.44;5013783;28;20281;-77
2023/05/26 09:32:26;;;;;;;17.80;5.90;;;;;;;19.00;96.67;100050.38;5010786;28;20207;-77
2023/05/26 09:34:56;;;;;;;16.43;5.73;;;;;;;19.10;99.81;100059.38;5008458;28;20330;-77
2023/05/26 09:37:32;;;;;;;22.33;6.10;;;;;;;18.89;100.00;100059.34;5011159;28;20199;-78
2023/05/26 09:40:08;;;;;;;16.67;5.77;;;;;;;18.99;100.00;100052.22;5014181;28;20209;-77
2023/05/26 09:42:38;;;;;;;20.20;6.30;;;;;;;19.20;100.00;100062.97;5013225;28;20285;-77
2023/05/26 09:45:06;;;;;;;19.37;5.90;;;;;;;19.67;97.22;100064.28;5008769;28;20277;-78
2023/05/26 09:47:36;;;;;;;19.40;6.43;;;;;;;19.71;97.04;100060.34;5012450;28;20200;-77
2023/05/26 09:50:05;;;;;;;20.50;5.87;;;;;;;19.61;94.37;100059.44;5007015;28;20621;-78
2023/05/26 09:52:36;;;;;;;15.90;5.73;;;;;;;19.80;89.29;100061.38;5013945;28;20244;-77
2023/05/26 09:55:05;;;;;;;14.03;5.80;;;;;;;20.10;90.84;100056.97;5011007;28;20274;-78
2023/05/26 09:57:36;;;;;;;17.13;5.43;;;;;;;20.38;88.65;100052.66;5015299;28;20638;-77
2023/05/26 10:00:09;;;;;;;18.20;5.90;;;;;;;20.09;89.84;100056.13;5010076;28;20206;-78
2023/05/26 10:02:40;;;;;;;20.57;6.43;;;;;;;20.12;87.06;100053.13;5012953;28;20187;-78
2023/05/26 10:05:09;;;;;;;16.93;5.33;;;;;;;20.65;86.07;100052.81;5012406;28;20217;-78
2023/05/26 10:07:42;;;;;;;17.27;5.67;;;;;;;20.37;82.03;100049.09;5013086;28;20198;-77
2023/05/26 10:10:14;;;;;;;16.23;5.90;;;;;;;20.41;83.96;100057.75;5012698;28;20198;-78
2023/05/26 10:12:43;;;;;;;19.27;5.30;;;;;;;20.38;81.48;100050.81;5015819;28;20212;-78
2023/05/26 10:15:12;;;;;;;15.13;5.32;;;;;;;20.24;81.91;100052.03;5014283;28;20218;-77
2023/05/26 10:17:40;;;;;;;20.00;5.82;;;;;;;19.93;86.63;100048.53;5003294;28;20202;-78
2023/05/26 10:20:10;;;;;;;20.87;5.73;;;;;;;20.02;88.98;100053.09;5008696;28;20206;-78
2023/05/26 10:22:47;;;;;;;19.80;6.20;;;;;;;19.67;85.94;100047.28;5012664;28;20277;-77
2023/05/26 10:25:27;;;;;;;16.95;5.35;;;;;;;19.66;88.74;100050.97;5004318;28;20313;-77
2023/05/26 10:28:03;;;;;;;21.48;6.22;;;;;;;19.61;91.89;100050.53;5009127;28;20197;-77
2023/05/26 10:30:32;;;;;;;24.33;6.47;;;;;;;19.64;91.39;100048.41;5011092;28;20201;-77
2023/05/26 10:33:09;;;;;;;16.10;5.47;;;;;;;19.81;89.88;100043.41;5006880;28;20205;-78
2023/05/26 10:35:39;;;;;;;17.63;5.40;;;;;;;19.48;91.53;100037.25;5000541;28;20216;-77
2023/05/26 10:38:15;;;;;;;21.13;6.17;;;;;;;19.71;90.01;100036.16;5008504;28;20221;-77
2023/05/26 10:40:44;;;;;;;19.70;5.68;;;;;;;20.30;86.72;100035.34;5013870;28;20225;-78
2023/05/26 10:43:20;;;;;;;19.85;6.10;;;;;;;20.41;87.30;100038.91;5009800;28;20210;-77
2023/05/26 10:45:52;;;;;;;19.20;5.90;;;;;;;20.26;88.66;100039.28;5013823;28;20653;-78
2023/05/26 10:48:26;;;;;;;13.67;5.27;;;;;;;20.19;90.21;100038.16;5013548;28;20645;-77
2023/05/26 10:51:27;;;;;;;20.88;5.93;;;;;;;20.42;86.74;100040.59;5011109;28;20198;-78
2023/05/26 10:53:59;;;;;;;23.67;5.78;;;;;;;20.74;85.76;100041.22;4950390;29;20224;-77
2023/05/26 10:56:36;;;;;;;16.08;5.15;;;;;;;21.25;77.75;100037.38;4999550;28;20204;-78
2023/05/26 10:59:06;;;;;;;17.30;6.07;;;;;;;21.63;74.76;100043.69;5007789;28;20199;-78
2023/05/26 11:01:35;;;;;;;15.77;5.60;;;;;;;21.74;77.60;100030.00;5009177;28;20213;-78
2023/05/26 11:04:11;;;;;;;17.98;5.30;;;;;;;21.02;79.17;100034.13;5008394;28;20203;-78
2023/05/26 11:06:46;;;;;;;17.80;5.63;;;;;;;20.98;74.98;100038.09;5011371;28;20280;-78
2023/05/26 11:09:17;;;;;;;18.65;5.40;;;;;;;21.37;71.68;100043.47;5011513;28;20213;-78
2023/05/26 11:11:51;;;;;;;15.95;5.35;;;;;;;21.07;71.46;100039.09;5008993;28;20198;-78
2023/05/26 11:14:25;;;;;;;17.60;5.65;;;;;;;20.80;71.46;100043.34;5012578;28;20214;-78
2023/05/26 11:16:56;;;;;;;14.77;5.43;;;;;;;21.14;74.78;100040.22;5012763;28;20205;-77
2023/05/26 11:19:30;;;;;;;14.20;4.97;;;;;;;21.57;67.44;100041.56;5011947;28;20217;-78
2023/05/26 11:22:00;;;;;;;15.90;5.40;;;;;;;22.42;60.94;100029.66;5011594;28;20202;-78
2023/05/26 11:24:31;;;;;;;14.00;4.40;;;;;;;22.44;64.02;100027.66;5008050;28;20241;-78
2023/05/26 11:27:00;;;;;;;19.92;5.80;;;;;;;22.75;61.58;100028.97;5012875;28;20300;-78